sensor_id;sensor_type;location;lat;lon;timestamp;P1;durP1;ratioP1;P2;durP2;ratioP2
71622;SDS011;59473;53.214;5.728;2023-04-23T00:00:21;92.78;;;25.23;;
71622;SDS011;59473;53.214;5.728;2023-04-23T00:02:47;93.70;;;26.42;;
71622;SDS011;59473;53.214;5.728;2023-04-23T00:05:16;86.27;;;25.47;;
71622;SDS011;59473;53.214;5.728;2023-04-23T00:07:42;99.22;;;25.98;;
71622;SDS011;59473;53.214;5.728;2023-04-23T00:10:07;85.93;;;26.50;;
71622;SDS011;59473;53.214;5.728;2023-04-23T00:12:33;98.70;;;26.75;;
71622;SDS011;59473;53.214;5.728;2023-04-23T00:14:59;99.80;;;26.67;;
71622;SDS011;59473;53.214;5.728;2023-04-23T00:17:24;92.00;;;26.47;;
71622;SDS011;59473;53.214;5.728;2023-04-23T00:19:49;97.27;;;26.93;;
71622;SDS011;59473;53.214;5.728;2023-04-23T00:22:15;95.15;;;26.90;;
71622;SDS011;59473;53.214;5.728;2023-04-23T00:24:41;95.43;;;27.80;;
71622;SDS011;59473;53.214;5.728;2023-04-23T00:27:06;103.40;;;27.50;;
71622;SDS011;59473;53.214;5.728;2023-04-23T00:29:31;110.90;;;27.97;;
71622;SDS011;59473;53.214;5.728;2023-04-23T00:31:57;95.43;;;27.38;;
71622;SDS011;59473;53.214;5.728;2023-04-23T00:34:22;106.77;;;26.97;;
71622;SDS011;59473;53.214;5.728;2023-04-23T00:36:48;105.90;;;28.93;;
71622;SDS011;59473;53.214;5.728;2023-04-23T00:39:13;91.30;;;26.77;;
71622;SDS011;59473;53.214;5.728;2023-04-23T00:41:39;103.97;;;29.03;;
71622;SDS011;59473;53.214;5.728;2023-04-23T00:44:05;102.88;;;27.35;;
71622;SDS011;59473;53.214;5.728;2023-04-23T00:46:30;117.50;;;29.40;;
71622;SDS011;59473;53.214;5.728;2023-04-23T00:48:56;116.47;;;28.27;;
71622;SDS011;59473;53.214;5.728;2023-04-23T00:51:22;102.20;;;26.23;;
71622;SDS011;59473;53.214;5.728;2023-04-23T00:53:48;112.57;;;28.35;;
71622;SDS011;59473;53.214;5.728;2023-04-23T00:56:13;111.17;;;26.60;;
71622;SDS011;59473;53.214;5.728;2023-04-23T00:58:38;121.27;;;28.67;;
71622;SDS011;59473;53.214;5.728;2023-04-23T01:01:04;105.20;;;28.05;;
71622;SDS011;59473;53.214;5.728;2023-04-23T01:03:30;120.50;;;26.87;;
71622;SDS011;59473;53.214;5.728;2023-04-23T01:05:56;126.00;;;28.85;;
71622;SDS011;59473;53.214;5.728;2023-04-23T01:08:21;136.87;;;29.57;;
71622;SDS011;59473;53.214;5.728;2023-04-23T01:10:47;128.07;;;28.02;;
71622;SDS011;59473;53.214;5.728;2023-04-23T01:13:12;130.60;;;28.23;;
71622;SDS011;59473;53.214;5.728;2023-04-23T01:15:37;132.87;;;28.53;;
71622;SDS011;59473;53.214;5.728;2023-04-23T01:18:03;121.90;;;28.30;;
71622;SDS011;59473;53.214;5.728;2023-04-23T01:20:28;143.80;;;29.93;;
71622;SDS011;59473;53.214;5.728;2023-04-23T01:22:54;163.00;;;30.50;;
71622;SDS011;59473;53.214;5.728;2023-04-23T01:25:19;219.00;;;31.70;;
71622;SDS011;59473;53.214;5.728;2023-04-23T01:27:44;205.43;;;32.93;;
71622;SDS011;59473;53.214;5.728;2023-04-23T01:30:09;163.30;;;30.17;;
71622;SDS011;59473;53.214;5.728;2023-04-23T01:32:35;166.80;;;30.83;;
71622;SDS011;59473;53.214;5.728;2023-04-23T01:35:01;168.73;;;30.77;;
71622;SDS011;59473;53.214;5.728;2023-04-23T01:37:26;176.30;;;32.70;;
71622;SDS011;59473;53.214;5.728;2023-04-23T01:39:52;137.90;;;30.63;;
71622;SDS011;59473;53.214;5.728;2023-04-23T01:42:17;139.03;;;29.57;;
71622;SDS011;59473;53.214;5.728;2023-04-23T01:44:42;160.77;;;32.33;;
71622;SDS011;59473;53.214;5.728;2023-04-23T01:47:08;150.73;;;30.07;;
71622;SDS011;59473;53.214;5.728;2023-04-23T01:49:33;122.50;;;28.20;;
71622;SDS011;59473;53.214;5.728;2023-04-23T01:51:58;145.87;;;29.93;;
71622;SDS011;59473;53.214;5.728;2023-04-23T01:54:23;156.23;;;32.03;;
71622;SDS011;59473;53.214;5.728;2023-04-23T01:56:49;133.70;;;29.67;;
71622;SDS011;59473;53.214;5.728;2023-04-23T01:59:18;142.52;;;30.73;;
71622;SDS011;59473;53.214;5.728;2023-04-23T02:01:45;167.57;;;32.97;;
71622;SDS011;59473;53.214;5.728;2023-04-23T02:04:11;123.40;;;27.57;;
71622;SDS011;59473;53.214;5.728;2023-04-23T02:06:37;157.77;;;31.27;;
71622;SDS011;59473;53.214;5.728;2023-04-23T02:09:02;165.50;;;33.43;;
71622;SDS011;59473;53.214;5.728;2023-04-23T02:11:28;122.30;;;29.77;;
71622;SDS011;59473;53.214;5.728;2023-04-23T02:13:53;143.43;;;32.43;;
71622;SDS011;59473;53.214;5.728;2023-04-23T02:16:18;161.47;;;34.90;;
71622;SDS011;59473;53.214;5.728;2023-04-23T02:18:43;147.37;;;31.53;;
71622;SDS011;59473;53.214;5.728;2023-04-23T02:21:09;156.70;;;31.80;;
71622;SDS011;59473;53.214;5.728;2023-04-23T02:23:35;148.32;;;32.25;;
71622;SDS011;59473;53.214;5.728;2023-04-23T02:26:00;139.87;;;32.83;;
71622;SDS011;59473;53.214;5.728;2023-04-23T02:28:25;154.97;;;33.30;;
71622;SDS011;59473;53.214;5.728;2023-04-23T02:30:50;142.97;;;32.83;;
71622;SDS011;59473;53.214;5.728;2023-04-23T02:33:16;137.17;;;31.67;;
71622;SDS011;59473;53.214;5.728;2023-04-23T02:35:41;174.50;;;36.90;;
71622;SDS011;59473;53.214;5.728;2023-04-23T02:38:06;127.40;;;30.20;;
71622;SDS011;59473;53.214;5.728;2023-04-23T02:40:31;191.10;;;38.53;;
71622;SDS011;59473;53.214;5.728;2023-04-23T02:42:57;270.40;;;39.77;;
71622;SDS011;59473;53.214;5.728;2023-04-23T02:45:22;321.40;;;38.07;;
71622;SDS011;59473;53.214;5.728;2023-04-23T02:47:47;475.23;;;47.60;;
71622;SDS011;59473;53.214;5.728;2023-04-23T02:50:12;443.47;;;43.33;;
71622;SDS011;59473;53.214;5.728;2023-04-23T02:52:37;381.97;;;43.90;;
71622;SDS011;59473;53.214;5.728;2023-04-23T02:55:03;444.67;;;44.80;;
71622;SDS011;59473;53.214;5.728;2023-04-23T02:57:28;663.73;;;55.03;;
71622;SDS011;59473;53.214;5.728;2023-04-23T02:59:53;458.05;;;42.90;;
71622;SDS011;59473;53.214;5.728;2023-04-23T03:02:19;665.72;;;53.63;;
71622;SDS011;59473;53.214;5.728;2023-04-23T03:04:44;599.25;;;55.53;;
71622;SDS011;59473;53.214;5.728;2023-04-23T03:07:10;613.37;;;56.80;;
71622;SDS011;59473;53.214;5.728;2023-04-23T03:09:37;471.25;;;47.78;;
71622;SDS011;59473;53.214;5.728;2023-04-23T03:12:02;670.63;;;62.17;;
71622;SDS011;59473;53.214;5.728;2023-04-23T03:14:28;570.67;;;54.50;;
71622;SDS011;59473;53.214;5.728;2023-04-23T03:16:54;609.20;;;58.87;;
71622;SDS011;59473;53.214;5.728;2023-04-23T03:19:19;690.00;;;60.67;;
71622;SDS011;59473;53.214;5.728;2023-04-23T03:21:44;543.00;;;55.23;;
71622;SDS011;59473;53.214;5.728;2023-04-23T03:24:11;665.20;;;61.33;;
71622;SDS011;59473;53.214;5.728;2023-04-23T03:26:37;634.80;;;58.22;;
71622;SDS011;59473;53.214;5.728;2023-04-23T03:29:02;625.20;;;62.60;;
71622;SDS011;59473;53.214;5.728;2023-04-23T03:31:27;488.63;;;53.43;;
71622;SDS011;59473;53.214;5.728;2023-04-23T03:33:53;355.70;;;42.70;;
71622;SDS011;59473;53.214;5.728;2023-04-23T03:36:18;429.20;;;49.23;;
71622;SDS011;59473;53.214;5.728;2023-04-23T03:38:43;493.53;;;55.07;;
71622;SDS011;59473;53.214;5.728;2023-04-23T03:41:08;540.60;;;56.70;;
71622;SDS011;59473;53.214;5.728;2023-04-23T03:43:34;478.50;;;54.80;;
71622;SDS011;59473;53.214;5.728;2023-04-23T03:45:59;446.10;;;53.23;;
71622;SDS011;59473;53.214;5.728;2023-04-23T03:48:24;459.77;;;58.73;;
71622;SDS011;59473;53.214;5.728;2023-04-23T03:50:50;328.47;;;49.00;;
71622;SDS011;59473;53.214;5.728;2023-04-23T03:53:15;344.77;;;46.53;;
71622;SDS011;59473;53.214;5.728;2023-04-23T03:55:41;333.23;;;46.75;;
71622;SDS011;59473;53.214;5.728;2023-04-23T03:58:07;331.40;;;48.70;;
71622;SDS011;59473;53.214;5.728;2023-04-23T04:00:33;387.52;;;54.03;;
71622;SDS011;59473;53.214;5.728;2023-04-23T04:02:58;371.10;;;53.43;;
71622;SDS011;59473;53.214;5.728;2023-04-23T04:05:25;421.85;;;58.42;;
71622;SDS011;59473;53.214;5.728;2023-04-23T04:07:51;389.17;;;54.70;;
71622;SDS011;59473;53.214;5.728;2023-04-23T04:10:16;360.67;;;53.67;;
71622;SDS011;59473;53.214;5.728;2023-04-23T04:12:41;409.73;;;62.13;;
71622;SDS011;59473;53.214;5.728;2023-04-23T04:15:09;386.45;;;58.67;;
71622;SDS011;59473;53.214;5.728;2023-04-23T04:17:34;395.73;;;62.63;;
71622;SDS011;59473;53.214;5.728;2023-04-23T04:19:59;398.03;;;54.70;;
71622;SDS011;59473;53.214;5.728;2023-04-23T04:22:25;346.63;;;54.10;;
71622;SDS011;59473;53.214;5.728;2023-04-23T04:24:50;354.03;;;55.13;;
71622;SDS011;59473;53.214;5.728;2023-04-23T04:27:16;331.38;;;53.03;;
71622;SDS011;59473;53.214;5.728;2023-04-23T04:29:42;387.60;;;58.23;;
71622;SDS011;59473;53.214;5.728;2023-04-23T04:32:07;351.65;;;54.97;;
71622;SDS011;59473;53.214;5.728;2023-04-23T04:34:33;332.88;;;51.70;;
71622;SDS011;59473;53.214;5.728;2023-04-23T04:37:00;363.27;;;55.53;;
71622;SDS011;59473;53.214;5.728;2023-04-23T04:39:25;374.45;;;56.88;;
71622;SDS011;59473;53.214;5.728;2023-04-23T04:41:50;342.97;;;57.70;;
71622;SDS011;59473;53.214;5.728;2023-04-23T04:44:16;295.40;;;49.88;;
71622;SDS011;59473;53.214;5.728;2023-04-23T04:46:41;374.73;;;58.83;;
71622;SDS011;59473;53.214;5.728;2023-04-23T04:49:07;366.80;;;57.57;;
71622;SDS011;59473;53.214;5.728;2023-04-23T04:51:33;378.30;;;58.20;;
71622;SDS011;59473;53.214;5.728;2023-04-23T04:53:58;350.07;;;55.47;;
71622;SDS011;59473;53.214;5.728;2023-04-23T04:56:23;318.53;;;50.87;;
71622;SDS011;59473;53.214;5.728;2023-04-23T04:58:49;363.98;;;55.25;;
71622;SDS011;59473;53.214;5.728;2023-04-23T05:01:15;337.87;;;55.57;;
71622;SDS011;59473;53.214;5.728;2023-04-23T05:03:40;357.83;;;58.37;;
71622;SDS011;59473;53.214;5.728;2023-04-23T05:06:05;321.07;;;53.27;;
71622;SDS011;59473;53.214;5.728;2023-04-23T05:08:30;324.60;;;54.03;;
71622;SDS011;59473;53.214;5.728;2023-04-23T05:10:56;310.17;;;51.47;;
71622;SDS011;59473;53.214;5.728;2023-04-23T05:13:21;309.70;;;51.33;;
71622;SDS011;59473;53.214;5.728;2023-04-23T05:15:46;333.10;;;53.70;;
71622;SDS011;59473;53.214;5.728;2023-04-23T05:18:11;344.27;;;57.40;;
71622;SDS011;59473;53.214;5.728;2023-04-23T05:20:36;327.93;;;55.17;;
71622;SDS011;59473;53.214;5.728;2023-04-23T05:23:02;316.97;;;52.90;;
71622;SDS011;59473;53.214;5.728;2023-04-23T05:25:28;303.00;;;54.27;;
71622;SDS011;59473;53.214;5.728;2023-04-23T05:27:53;313.88;;;53.38;;
71622;SDS011;59473;53.214;5.728;2023-04-23T05:30:18;309.73;;;53.23;;
71622;SDS011;59473;53.214;5.728;2023-04-23T05:32:44;296.87;;;51.23;;
71622;SDS011;59473;53.214;5.728;2023-04-23T05:35:09;271.90;;;52.53;;
71622;SDS011;59473;53.214;5.728;2023-04-23T05:37:34;256.27;;;48.13;;
71622;SDS011;59473;53.214;5.728;2023-04-23T05:40:00;283.37;;;54.67;;
71622;SDS011;59473;53.214;5.728;2023-04-23T05:42:26;244.45;;;48.78;;
71622;SDS011;59473;53.214;5.728;2023-04-23T05:44:52;233.30;;;41.87;;
71622;SDS011;59473;53.214;5.728;2023-04-23T05:47:17;233.60;;;47.37;;
71622;SDS011;59473;53.214;5.728;2023-04-23T05:49:42;253.07;;;50.40;;
71622;SDS011;59473;53.214;5.728;2023-04-23T05:52:07;241.57;;;48.97;;
71622;SDS011;59473;53.214;5.728;2023-04-23T05:54:32;240.13;;;53.57;;
71622;SDS011;59473;53.214;5.728;2023-04-23T05:56:58;225.73;;;47.23;;
71622;SDS011;59473;53.214;5.728;2023-04-23T05:59:23;221.80;;;47.13;;
71622;SDS011;59473;53.214;5.728;2023-04-23T06:01:48;226.63;;;49.37;;
71622;SDS011;59473;53.214;5.728;2023-04-23T06:04:14;218.98;;;48.42;;
71622;SDS011;59473;53.214;5.728;2023-04-23T06:06:40;212.07;;;50.20;;
71622;SDS011;59473;53.214;5.728;2023-04-23T06:09:06;192.48;;;45.35;;
71622;SDS011;59473;53.214;5.728;2023-04-23T06:11:31;177.77;;;43.60;;
71622;SDS011;59473;53.214;5.728;2023-04-23T06:13:57;174.20;;;43.37;;
71622;SDS011;59473;53.214;5.728;2023-04-23T06:16:23;158.57;;;41.95;;
71622;SDS011;59473;53.214;5.728;2023-04-23T06:18:48;147.83;;;40.47;;
71622;SDS011;59473;53.214;5.728;2023-04-23T06:21:13;121.93;;;34.40;;
71622;SDS011;59473;53.214;5.728;2023-04-23T06:23:39;119.93;;;37.60;;
71622;SDS011;59473;53.214;5.728;2023-04-23T06:26:04;112.77;;;38.53;;
71622;SDS011;59473;53.214;5.728;2023-04-23T06:28:30;125.47;;;39.63;;
71622;SDS011;59473;53.214;5.728;2023-04-23T06:30:55;132.23;;;41.10;;
71622;SDS011;59473;53.214;5.728;2023-04-23T06:33:20;117.17;;;36.97;;
71622;SDS011;59473;53.214;5.728;2023-04-23T06:35:45;119.83;;;37.83;;
71622;SDS011;59473;53.214;5.728;2023-04-23T06:38:11;116.27;;;37.50;;
71622;SDS011;59473;53.214;5.728;2023-04-23T06:40:36;117.43;;;37.53;;
71622;SDS011;59473;53.214;5.728;2023-04-23T06:43:01;116.73;;;41.17;;
71622;SDS011;59473;53.214;5.728;2023-04-23T06:45:29;111.43;;;36.78;;
71622;SDS011;59473;53.214;5.728;2023-04-23T06:47:55;116.22;;;38.45;;
71622;SDS011;59473;53.214;5.728;2023-04-23T06:50:21;121.83;;;36.97;;
71622;SDS011;59473;53.214;5.728;2023-04-23T06:52:46;113.33;;;34.90;;
71622;SDS011;59473;53.214;5.728;2023-04-23T06:55:11;129.50;;;40.57;;
71622;SDS011;59473;53.214;5.728;2023-04-23T06:57:36;127.17;;;40.20;;
71622;SDS011;59473;53.214;5.728;2023-04-23T07:00:02;128.03;;;40.10;;
71622;SDS011;59473;53.214;5.728;2023-04-23T07:02:27;136.33;;;44.77;;
71622;SDS011;59473;53.214;5.728;2023-04-23T07:04:52;126.90;;;38.13;;
71622;SDS011;59473;53.214;5.728;2023-04-23T07:07:17;117.30;;;37.80;;
71622;SDS011;59473;53.214;5.728;2023-04-23T07:09:43;116.13;;;39.30;;
71622;SDS011;59473;53.214;5.728;2023-04-23T07:12:08;106.70;;;36.07;;
71622;SDS011;59473;53.214;5.728;2023-04-23T07:14:33;113.17;;;38.70;;
71622;SDS011;59473;53.214;5.728;2023-04-23T07:16:58;112.38;;;38.67;;
71622;SDS011;59473;53.214;5.728;2023-04-23T07:19:24;103.37;;;36.77;;
71622;SDS011;59473;53.214;5.728;2023-04-23T07:21:49;85.97;;;33.47;;
71622;SDS011;59473;53.214;5.728;2023-04-23T07:24:14;85.90;;;35.00;;
71622;SDS011;59473;53.214;5.728;2023-04-23T07:26:40;85.85;;;36.13;;
71622;SDS011;59473;53.214;5.728;2023-04-23T07:29:06;76.97;;;31.93;;
71622;SDS011;59473;53.214;5.728;2023-04-23T07:31:34;80.35;;;35.25;;
71622;SDS011;59473;53.214;5.728;2023-04-23T07:34:00;77.73;;;35.27;;
71622;SDS011;59473;53.214;5.728;2023-04-23T07:36:25;63.93;;;30.43;;
71622;SDS011;59473;53.214;5.728;2023-04-23T07:38:51;66.88;;;32.53;;
71622;SDS011;59473;53.214;5.728;2023-04-23T07:41:17;60.60;;;30.27;;
71622;SDS011;59473;53.214;5.728;2023-04-23T07:43:42;60.73;;;30.07;;
71622;SDS011;59473;53.214;5.728;2023-04-23T07:46:07;54.03;;;28.83;;
71622;SDS011;59473;53.214;5.728;2023-04-23T07:48:32;51.97;;;27.20;;
71622;SDS011;59473;53.214;5.728;2023-04-23T07:51:01;55.75;;;29.42;;
71622;SDS011;59473;53.214;5.728;2023-04-23T07:53:26;57.45;;;29.83;;
71622;SDS011;59473;53.214;5.728;2023-04-23T07:55:52;54.00;;;28.27;;
71622;SDS011;59473;53.214;5.728;2023-04-23T07:58:18;51.92;;;27.98;;
71622;SDS011;59473;53.214;5.728;2023-04-23T08:00:43;52.93;;;27.93;;
71622;SDS011;59473;53.214;5.728;2023-04-23T08:03:08;47.37;;;27.80;;
71622;SDS011;59473;53.214;5.728;2023-04-23T08:05:33;49.97;;;26.47;;
71622;SDS011;59473;53.214;5.728;2023-04-23T08:08:01;48.65;;;27.77;;
71622;SDS011;59473;53.214;5.728;2023-04-23T08:10:26;47.40;;;26.90;;
71622;SDS011;59473;53.214;5.728;2023-04-23T08:12:51;44.40;;;25.77;;
71622;SDS011;59473;53.214;5.728;2023-04-23T08:15:16;47.30;;;25.47;;
71622;SDS011;59473;53.214;5.728;2023-04-23T08:17:41;43.00;;;24.03;;
71622;SDS011;59473;53.214;5.728;2023-04-23T08:20:07;43.47;;;24.73;;
71622;SDS011;59473;53.214;5.728;2023-04-23T08:22:32;44.53;;;25.63;;
71622;SDS011;59473;53.214;5.728;2023-04-23T08:24:57;48.30;;;25.10;;
71622;SDS011;59473;53.214;5.728;2023-04-23T08:27:23;47.37;;;24.50;;
71622;SDS011;59473;53.214;5.728;2023-04-23T08:29:48;47.33;;;23.07;;
71622;SDS011;59473;53.214;5.728;2023-04-23T08:32:13;44.23;;;23.77;;
71622;SDS011;59473;53.214;5.728;2023-04-23T08:34:38;39.73;;;22.13;;
71622;SDS011;59473;53.214;5.728;2023-04-23T08:37:03;38.53;;;22.70;;
71622;SDS011;59473;53.214;5.728;2023-04-23T08:39:29;39.33;;;20.50;;
71622;SDS011;59473;53.214;5.728;2023-04-23T08:41:57;35.00;;;19.83;;
71622;SDS011;59473;53.214;5.728;2023-04-23T08:44:26;35.53;;;21.43;;
71622;SDS011;59473;53.214;5.728;2023-04-23T08:46:53;30.52;;;18.63;;
71622;SDS011;59473;53.214;5.728;2023-04-23T08:49:18;29.83;;;18.30;;
71622;SDS011;59473;53.214;5.728;2023-04-23T08:51:52;29.77;;;18.33;;
71622;SDS011;59473;53.214;5.728;2023-04-23T08:54:20;28.92;;;17.73;;
71622;SDS011;59473;53.214;5.728;2023-04-23T08:56:46;29.50;;;16.08;;
71622;SDS011;59473;53.214;5.728;2023-04-23T08:59:11;29.33;;;17.23;;
71622;SDS011;59473;53.214;5.728;2023-04-23T09:01:36;28.23;;;16.10;;
71622;SDS011;59473;53.214;5.728;2023-04-23T09:04:02;26.13;;;16.40;;
71622;SDS011;59473;53.214;5.728;2023-04-23T09:06:28;26.27;;;13.73;;
71622;SDS011;59473;53.214;5.728;2023-04-23T09:08:56;22.02;;;11.85;;
71622;SDS011;59473;53.214;5.728;2023-04-23T09:11:22;20.70;;;12.55;;
71622;SDS011;59473;53.214;5.728;2023-04-23T09:13:48;20.00;;;11.80;;
71622;SDS011;59473;53.214;5.728;2023-04-23T09:16:13;19.57;;;11.83;;
71622;SDS011;59473;53.214;5.728;2023-04-23T09:18:38;20.60;;;11.93;;
71622;SDS011;59473;53.214;5.728;2023-04-23T09:21:03;19.10;;;11.83;;
71622;SDS011;59473;53.214;5.728;2023-04-23T09:23:29;18.93;;;11.17;;
71622;SDS011;59473;53.214;5.728;2023-04-23T09:25:56;20.90;;;11.38;;
71622;SDS011;59473;53.214;5.728;2023-04-23T09:28:21;18.53;;;11.23;;
71622;SDS011;59473;53.214;5.728;2023-04-23T09:30:57;18.40;;;11.10;;
71622;SDS011;59473;53.214;5.728;2023-04-23T09:33:23;14.87;;;9.53;;
71622;SDS011;59473;53.214;5.728;2023-04-23T09:35:48;17.33;;;10.67;;
71622;SDS011;59473;53.214;5.728;2023-04-23T09:38:13;23.77;;;10.90;;
71622;SDS011;59473;53.214;5.728;2023-04-23T09:40:39;21.48;;;10.50;;
71622;SDS011;59473;53.214;5.728;2023-04-23T09:43:04;18.13;;;11.00;;
71622;SDS011;59473;53.214;5.728;2023-04-23T09:45:31;19.50;;;10.77;;
71622;SDS011;59473;53.214;5.728;2023-04-23T09:47:57;18.98;;;11.45;;
71622;SDS011;59473;53.214;5.728;2023-04-23T09:50:35;17.77;;;11.57;;
71622;SDS011;59473;53.214;5.728;2023-04-23T09:53:01;17.75;;;10.52;;
71622;SDS011;59473;53.214;5.728;2023-04-23T09:55:27;16.97;;;9.70;;
71622;SDS011;59473;53.214;5.728;2023-04-23T09:57:53;20.17;;;10.43;;
71622;SDS011;59473;53.214;5.728;2023-04-23T10:00:18;19.60;;;11.10;;
71622;SDS011;59473;53.214;5.728;2023-04-23T10:02:45;18.38;;;10.60;;
71622;SDS011;59473;53.214;5.728;2023-04-23T10:05:17;19.70;;;11.33;;
71622;SDS011;59473;53.214;5.728;2023-04-23T10:07:43;17.17;;;10.07;;
71622;SDS011;59473;53.214;5.728;2023-04-23T10:10:09;19.50;;;12.48;;
71622;SDS011;59473;53.214;5.728;2023-04-23T10:12:35;19.55;;;11.45;;
71622;SDS011;59473;53.214;5.728;2023-04-23T10:15:01;17.40;;;10.30;;
71622;SDS011;59473;53.214;5.728;2023-04-23T10:17:27;19.45;;;10.00;;
71622;SDS011;59473;53.214;5.728;2023-04-23T10:19:53;17.47;;;8.40;;
71622;SDS011;59473;53.214;5.728;2023-04-23T10:22:19;17.60;;;9.23;;
71622;SDS011;59473;53.214;5.728;2023-04-23T10:24:45;15.77;;;8.77;;
71622;SDS011;59473;53.214;5.728;2023-04-23T10:27:15;14.13;;;7.80;;
71622;SDS011;59473;53.214;5.728;2023-04-23T10:29:40;17.83;;;8.40;;
71622;SDS011;59473;53.214;5.728;2023-04-23T10:32:06;13.00;;;7.50;;
71622;SDS011;59473;53.214;5.728;2023-04-23T10:34:31;13.95;;;6.63;;
71622;SDS011;59473;53.214;5.728;2023-04-23T10:36:57;12.93;;;6.97;;
71622;SDS011;59473;53.214;5.728;2023-04-23T10:39:30;15.60;;;6.80;;
71622;SDS011;59473;53.214;5.728;2023-04-23T10:41:56;16.20;;;7.35;;
71622;SDS011;59473;53.214;5.728;2023-04-23T10:44:30;13.07;;;6.50;;
71622;SDS011;59473;53.214;5.728;2023-04-23T10:46:56;14.10;;;6.53;;
71622;SDS011;59473;53.214;5.728;2023-04-23T10:49:22;13.43;;;5.35;;
71622;SDS011;59473;53.214;5.728;2023-04-23T10:51:48;14.55;;;6.35;;
71622;SDS011;59473;53.214;5.728;2023-04-23T10:54:14;13.73;;;6.33;;
71622;SDS011;59473;53.214;5.728;2023-04-23T10:56:39;10.85;;;5.13;;
71622;SDS011;59473;53.214;5.728;2023-04-23T10:59:26;11.37;;;4.80;;
71622;SDS011;59473;53.214;5.728;2023-04-23T11:01:51;12.63;;;4.90;;
71622;SDS011;59473;53.214;5.728;2023-04-23T11:04:22;12.68;;;5.63;;
71622;SDS011;59473;53.214;5.728;2023-04-23T11:11:54;13.30;;;4.93;;
71622;SDS011;59473;53.214;5.728;2023-04-23T11:14:20;16.03;;;4.50;;
71622;SDS011;59473;53.214;5.728;2023-04-23T11:16:57;10.10;;;4.20;;
71622;SDS011;59473;53.214;5.728;2023-04-23T11:19:22;9.47;;;3.80;;
71622;SDS011;59473;53.214;5.728;2023-04-23T11:22:06;9.87;;;3.20;;
71622;SDS011;59473;53.214;5.728;2023-04-23T11:24:36;10.70;;;3.42;;
71622;SDS011;59473;53.214;5.728;2023-04-23T11:27:06;10.00;;;2.45;;
71622;SDS011;59473;53.214;5.728;2023-04-23T11:29:32;8.48;;;2.50;;
71622;SDS011;59473;53.214;5.728;2023-04-23T11:31:58;8.37;;;2.80;;
71622;SDS011;59473;53.214;5.728;2023-04-23T11:34:23;9.75;;;2.40;;
71622;SDS011;59473;53.214;5.728;2023-04-23T11:36:50;7.47;;;2.40;;
71622;SDS011;59473;53.214;5.728;2023-04-23T11:39:16;10.52;;;2.03;;
71622;SDS011;59473;53.214;5.728;2023-04-23T11:41:43;7.70;;;2.20;;
71622;SDS011;59473;53.214;5.728;2023-04-23T11:44:10;9.85;;;2.17;;
71622;SDS011;59473;53.214;5.728;2023-04-23T11:46:35;9.73;;;2.20;;
71622;SDS011;59473;53.214;5.728;2023-04-23T11:49:02;9.20;;;2.60;;
71622;SDS011;59473;53.214;5.728;2023-04-23T11:51:27;9.07;;;2.45;;
71622;SDS011;59473;53.214;5.728;2023-04-23T11:53:52;7.77;;;2.37;;
71622;SDS011;59473;53.214;5.728;2023-04-23T11:56:18;7.87;;;2.87;;
71622;SDS011;59473;53.214;5.728;2023-04-23T11:58:44;9.23;;;2.80;;
71622;SDS011;59473;53.214;5.728;2023-04-23T12:01:09;7.35;;;3.30;;
71622;SDS011;59473;53.214;5.728;2023-04-23T12:03:35;9.03;;;3.70;;
71622;SDS011;59473;53.214;5.728;2023-04-23T12:06:00;11.30;;;4.57;;
71622;SDS011;59473;53.214;5.728;2023-04-23T12:08:30;8.50;;;3.15;;
71622;SDS011;59473;53.214;5.728;2023-04-23T12:10:59;10.32;;;3.08;;
71622;SDS011;59473;53.214;5.728;2023-04-23T12:13:26;9.55;;;2.40;;
71622;SDS011;59473;53.214;5.728;2023-04-23T12:18:17;7.83;;;2.90;;
71622;SDS011;59473;53.214;5.728;2023-04-23T12:20:43;8.57;;;2.13;;
71622;SDS011;59473;53.214;5.728;2023-04-23T12:23:08;8.73;;;2.10;;
71622;SDS011;59473;53.214;5.728;2023-04-23T12:25:34;7.73;;;2.23;;
71622;SDS011;59473;53.214;5.728;2023-04-23T12:27:59;8.15;;;2.40;;
71622;SDS011;59473;53.214;5.728;2023-04-23T12:30:28;10.60;;;2.45;;
71622;SDS011;59473;53.214;5.728;2023-04-23T12:33:00;9.07;;;2.43;;
71622;SDS011;59473;53.214;5.728;2023-04-23T12:35:44;7.25;;;2.30;;
71622;SDS011;59473;53.214;5.728;2023-04-23T12:38:23;9.65;;;2.03;;
71622;SDS011;59473;53.214;5.728;2023-04-23T12:40:49;8.65;;;2.03;;
71622;SDS011;59473;53.214;5.728;2023-04-23T12:43:15;9.75;;;1.70;;
71622;SDS011;59473;53.214;5.728;2023-04-23T12:45:40;7.47;;;1.70;;
71622;SDS011;59473;53.214;5.728;2023-04-23T12:48:05;7.30;;;1.90;;
71622;SDS011;59473;53.214;5.728;2023-04-23T12:50:31;9.87;;;2.00;;
71622;SDS011;59473;53.214;5.728;2023-04-23T12:52:56;9.53;;;2.10;;
71622;SDS011;59473;53.214;5.728;2023-04-23T12:55:21;11.00;;;2.17;;
71622;SDS011;59473;53.214;5.728;2023-04-23T12:57:46;8.87;;;2.10;;
71622;SDS011;59473;53.214;5.728;2023-04-23T13:00:12;9.97;;;2.23;;
71622;SDS011;59473;53.214;5.728;2023-04-23T13:02:37;9.80;;;1.93;;
71622;SDS011;59473;53.214;5.728;2023-04-23T13:05:02;14.47;;;2.00;;
71622;SDS011;59473;53.214;5.728;2023-04-23T13:07:28;11.02;;;2.40;;
71622;SDS011;59473;53.214;5.728;2023-04-23T13:09:53;6.75;;;1.90;;
71622;SDS011;59473;53.214;5.728;2023-04-23T13:12:18;9.32;;;1.83;;
71622;SDS011;59473;53.214;5.728;2023-04-23T13:14:43;8.85;;;2.10;;
71622;SDS011;59473;53.214;5.728;2023-04-23T13:17:09;9.02;;;1.83;;
71622;SDS011;59473;53.214;5.728;2023-04-23T13:19:34;9.13;;;1.70;;
71622;SDS011;59473;53.214;5.728;2023-04-23T13:22:01;7.83;;;1.53;;
71622;SDS011;59473;53.214;5.728;2023-04-23T13:24:28;7.75;;;2.17;;
71622;SDS011;59473;53.214;5.728;2023-04-23T13:26:53;8.77;;;2.00;;
71622;SDS011;59473;53.214;5.728;2023-04-23T13:29:19;9.63;;;2.00;;
71622;SDS011;59473;53.214;5.728;2023-04-23T13:31:44;9.03;;;2.20;;
71622;SDS011;59473;53.214;5.728;2023-04-23T13:34:09;7.17;;;1.90;;
71622;SDS011;59473;53.214;5.728;2023-04-23T13:36:35;12.67;;;2.43;;
71622;SDS011;59473;53.214;5.728;2023-04-23T13:39:01;11.85;;;2.00;;
71622;SDS011;59473;53.214;5.728;2023-04-23T13:41:26;9.73;;;2.13;;
71622;SDS011;59473;53.214;5.728;2023-04-23T13:43:51;13.67;;;2.23;;
71622;SDS011;59473;53.214;5.728;2023-04-23T13:46:17;9.40;;;2.03;;
71622;SDS011;59473;53.214;5.728;2023-04-23T13:48:43;8.07;;;1.90;;
71622;SDS011;59473;53.214;5.728;2023-04-23T13:51:08;6.93;;;1.40;;
71622;SDS011;59473;53.214;5.728;2023-04-23T13:53:33;10.33;;;2.10;;
71622;SDS011;59473;53.214;5.728;2023-04-23T13:55:59;6.47;;;1.67;;
71622;SDS011;59473;53.214;5.728;2023-04-23T13:58:24;10.70;;;1.92;;
71622;SDS011;59473;53.214;5.728;2023-04-23T14:00:50;11.10;;;2.00;;
71622;SDS011;59473;53.214;5.728;2023-04-23T14:03:15;8.88;;;1.80;;
71622;SDS011;59473;53.214;5.728;2023-04-23T14:05:41;8.43;;;1.80;;
71622;SDS011;59473;53.214;5.728;2023-04-23T14:08:06;11.27;;;2.20;;
71622;SDS011;59473;53.214;5.728;2023-04-23T14:10:31;9.53;;;1.73;;
71622;SDS011;59473;53.214;5.728;2023-04-23T14:12:57;7.70;;;1.80;;
71622;SDS011;59473;53.214;5.728;2023-04-23T14:15:22;13.97;;;1.90;;
71622;SDS011;59473;53.214;5.728;2023-04-23T14:17:47;7.90;;;1.47;;
71622;SDS011;59473;53.214;5.728;2023-04-23T14:20:13;11.67;;;1.53;;